sensor_id;sensor_type;location;lat;lon;timestamp;P1;durP1;ratioP1;P2;durP2;ratioP2
66893;SDS011;53801;55.786;49.142;2023-03-13T00:02:23;8.10;;;1.35;;
66893;SDS011;53801;55.786;49.142;2023-03-13T00:07:47;10.17;;;1.67;;
66893;SDS011;53801;55.786;49.142;2023-03-13T00:19:42;8.57;;;1.08;;
66893;SDS011;53801;55.786;49.142;2023-03-13T00:22:43;10.83;;;1.40;;
66893;SDS011;53801;55.786;49.142;2023-03-13T00:25:32;8.02;;;1.42;;
66893;SDS011;53801;55.786;49.142;2023-03-13T00:28:34;8.15;;;1.13;;
66893;SDS011;53801;55.786;49.142;2023-03-13T00:37:42;15.77;;;1.50;;
66893;SDS011;53801;55.786;49.142;2023-03-13T01:09:42;9.17;;;1.80;;
66893;SDS011;53801;55.786;49.142;2023-03-13T01:12:57;12.32;;;1.80;;
66893;SDS011;53801;55.786;49.142;2023-03-13T01:18:49;13.67;;;2.50;;
66893;SDS011;53801;55.786;49.142;2023-03-13T01:25:02;8.95;;;1.35;;
66893;SDS011;53801;55.786;49.142;2023-03-13T01:34:29;7.83;;;1.30;;
66893;SDS011;53801;55.786;49.142;2023-03-13T01:37:06;15.20;;;2.58;;
66893;SDS011;53801;55.786;49.142;2023-03-13T01:39:57;11.45;;;1.63;;
66893;SDS011;53801;55.786;49.142;2023-03-13T01:53:27;6.35;;;1.30;;
66893;SDS011;53801;55.786;49.142;2023-03-13T01:55:59;12.27;;;1.60;;
66893;SDS011;53801;55.786;49.142;2023-03-13T01:58:58;7.28;;;0.82;;
66893;SDS011;53801;55.786;49.142;2023-03-13T02:04:11;0.20;;;0.13;;
66893;SDS011;53801;55.786;49.142;2023-03-13T03:37:56;0.20;;;0.20;;
66893;SDS011;53801;55.786;49.142;2023-03-13T03:43:37;0.20;;;0.17;;
66893;SDS011;53801;55.786;49.142;2023-03-13T04:18:58;0.20;;;0.20;;
66893;SDS011;53801;55.786;49.142;2023-03-13T04:21:58;0.23;;;0.20;;
66893;SDS011;53801;55.786;49.142;2023-03-13T04:24:58;0.20;;;0.10;;
66893;SDS011;53801;55.786;49.142;2023-03-13T04:30:39;0.20;;;0.10;;
66893;SDS011;53801;55.786;49.142;2023-03-13T04:36:28;0.20;;;0.10;;
66893;SDS011;53801;55.786;49.142;2023-03-13T04:39:34;0.20;;;0.10;;
66893;SDS011;53801;55.786;49.142;2023-03-13T04:42:08;0.20;;;0.10;;
66893;SDS011;53801;55.786;49.142;2023-03-13T04:44:33;0.30;;;0.20;;
66893;SDS011;53801;55.786;49.142;2023-03-13T04:49:36;0.30;;;0.20;;
66893;SDS011;53801;55.786;49.142;2023-03-13T04:52:01;0.20;;;0.10;;
66893;SDS011;53801;55.786;49.142;2023-03-13T04:54:27;0.20;;;0.20;;
66893;SDS011;53801;55.786;49.142;2023-03-13T04:56:55;0.20;;;0.10;;
66893;SDS011;53801;55.786;49.142;2023-03-13T04:59:21;0.20;;;0.10;;
66893;SDS011;53801;55.786;49.142;2023-03-13T05:01:46;0.20;;;0.10;;
66893;SDS011;53801;55.786;49.142;2023-03-13T05:04:11;0.20;;;0.10;;
66893;SDS011;53801;55.786;49.142;2023-03-13T05:06:37;0.20;;;0.10;;
66893;SDS011;53801;55.786;49.142;2023-03-13T05:09:03;0.20;;;0.10;;
66893;SDS011;53801;55.786;49.142;2023-03-13T05:11:31;0.20;;;0.10;;
66893;SDS011;53801;55.786;49.142;2023-03-13T05:17:09;0.20;;;0.10;;
66893;SDS011;53801;55.786;49.142;2023-03-13T05:19:36;0.20;;;0.10;;
66893;SDS011;53801;55.786;49.142;2023-03-13T05:22:02;0.27;;;0.17;;
66893;SDS011;53801;55.786;49.142;2023-03-13T05:24:27;0.20;;;0.17;;
66893;SDS011;53801;55.786;49.142;2023-03-13T05:26:53;0.20;;;0.13;;
66893;SDS011;53801;55.786;49.142;2023-03-13T05:29:19;0.20;;;0.10;;
66893;SDS011;53801;55.786;49.142;2023-03-13T05:31:44;0.30;;;0.20;;
66893;SDS011;53801;55.786;49.142;2023-03-13T05:34:11;0.47;;;0.30;;
66893;SDS011;53801;55.786;49.142;2023-03-13T05:36:37;2.20;;;1.10;;
66893;SDS011;53801;55.786;49.142;2023-03-13T05:39:02;0.20;;;0.10;;
66893;SDS011;53801;55.786;49.142;2023-03-13T05:41:28;0.20;;;0.10;;
66893;SDS011;53801;55.786;49.142;2023-03-13T05:43:54;0.20;;;0.10;;
66893;SDS011;53801;55.786;49.142;2023-03-13T05:46:19;0.20;;;0.10;;
66893;SDS011;53801;55.786;49.142;2023-03-13T05:48:44;0.20;;;0.10;;
66893;SDS011;53801;55.786;49.142;2023-03-13T05:51:11;0.20;;;0.10;;
66893;SDS011;53801;55.786;49.142;2023-03-13T05:53:36;0.20;;;0.10;;
66893;SDS011;53801;55.786;49.142;2023-03-13T05:56:02;0.20;;;0.10;;
66893;SDS011;53801;55.786;49.142;2023-03-13T05:58:27;0.50;;;0.47;;
66893;SDS011;53801;55.786;49.142;2023-03-13T06:00:53;0.20;;;0.10;;
66893;SDS011;53801;55.786;49.142;2023-03-13T06:03:18;0.47;;;0.40;;
66893;SDS011;53801;55.786;49.142;2023-03-13T06:05:44;0.87;;;0.43;;
66893;SDS011;53801;55.786;49.142;2023-03-13T06:08:09;0.20;;;0.10;;
66893;SDS011;53801;55.786;49.142;2023-03-13T06:10:34;0.25;;;0.15;;
66893;SDS011;53801;55.786;49.142;2023-03-13T06:13:00;0.30;;;0.30;;
66893;SDS011;53801;55.786;49.142;2023-03-13T06:15:26;0.20;;;0.10;;
66893;SDS011;53801;55.786;49.142;2023-03-13T06:17:51;0.20;;;0.10;;
66893;SDS011;53801;55.786;49.142;2023-03-13T06:20:16;0.20;;;0.10;;
66893;SDS011;53801;55.786;49.142;2023-03-13T06:22:42;0.30;;;0.20;;
66893;SDS011;53801;55.786;49.142;2023-03-13T06:25:08;0.20;;;0.10;;
66893;SDS011;53801;55.786;49.142;2023-03-13T06:27:33;0.20;;;0.10;;
66893;SDS011;53801;55.786;49.142;2023-03-13T06:29:59;0.20;;;0.10;;
66893;SDS011;53801;55.786;49.142;2023-03-13T06:32:25;0.20;;;0.10;;
66893;SDS011;53801;55.786;49.142;2023-03-13T06:34:51;0.20;;;0.10;;
66893;SDS011;53801;55.786;49.142;2023-03-13T06:37:17;0.20;;;0.10;;
66893;SDS011;53801;55.786;49.142;2023-03-13T06:39:42;0.30;;;0.23;;
66893;SDS011;53801;55.786;49.142;2023-03-13T06:42:07;0.20;;;0.10;;
66893;SDS011;53801;55.786;49.142;2023-03-13T06:44:33;0.20;;;0.10;;
66893;SDS011;53801;55.786;49.142;2023-03-13T06:46:58;0.20;;;0.10;;
66893;SDS011;53801;55.786;49.142;2023-03-13T06:49:24;0.20;;;0.10;;
66893;SDS011;53801;55.786;49.142;2023-03-13T06:51:49;0.20;;;0.20;;
66893;SDS011;53801;55.786;49.142;2023-03-13T06:54:15;0.20;;;0.10;;
66893;SDS011;53801;55.786;49.142;2023-03-13T06:56:40;0.20;;;0.10;;
66893;SDS011;53801;55.786;49.142;2023-03-13T06:59:06;0.30;;;0.20;;
66893;SDS011;53801;55.786;49.142;2023-03-13T07:01:31;0.20;;;0.10;;
66893;SDS011;53801;55.786;49.142;2023-03-13T07:03:57;0.30;;;0.20;;
66893;SDS011;53801;55.786;49.142;2023-03-13T07:06:22;0.23;;;0.13;;
66893;SDS011;53801;55.786;49.142;2023-03-13T07:08:48;0.20;;;0.10;;
66893;SDS011;53801;55.786;49.142;2023-03-13T07:11:14;0.20;;;0.10;;
66893;SDS011;53801;55.786;49.142;2023-03-13T07:13:39;0.20;;;0.10;;
66893;SDS011;53801;55.786;49.142;2023-03-13T07:16:06;0.20;;;0.10;;
66893;SDS011;53801;55.786;49.142;2023-03-13T07:18:32;0.20;;;0.10;;
66893;SDS011;53801;55.786;49.142;2023-03-13T07:20:58;0.22;;;0.10;;
66893;SDS011;53801;55.786;49.142;2023-03-13T07:23:25;0.20;;;0.10;;
66893;SDS011;53801;55.786;49.142;2023-03-13T07:25:54;0.20;;;0.10;;
66893;SDS011;53801;55.786;49.142;2023-03-13T07:28:20;0.30;;;0.20;;
66893;SDS011;53801;55.786;49.142;2023-03-13T07:30:46;0.47;;;0.40;;
66893;SDS011;53801;55.786;49.142;2023-03-13T07:33:12;0.30;;;0.20;;
66893;SDS011;53801;55.786;49.142;2023-03-13T07:41:01;0.40;;;0.30;;
66893;SDS011;53801;55.786;49.142;2023-03-13T07:49:34;0.40;;;0.20;;
66893;SDS011;53801;55.786;49.142;2023-03-13T07:52:06;0.30;;;0.20;;
66893;SDS011;53801;55.786;49.142;2023-03-13T07:54:39;0.40;;;0.30;;
66893;SDS011;53801;55.786;49.142;2023-03-13T08:02:56;0.30;;;0.20;;
66893;SDS011;53801;55.786;49.142;2023-03-13T08:05:21;0.40;;;0.20;;
66893;SDS011;53801;55.786;49.142;2023-03-13T08:07:47;0.40;;;0.30;;
66893;SDS011;53801;55.786;49.142;2023-03-13T08:13:29;0.70;;;0.63;;
66893;SDS011;53801;55.786;49.142;2023-03-13T08:16:01;1.10;;;1.00;;
66893;SDS011;53801;55.786;49.142;2023-03-13T08:18:27;1.75;;;1.65;;
66893;SDS011;53801;55.786;49.142;2023-03-13T08:21:05;1.30;;;1.20;;
66893;SDS011;53801;55.786;49.142;2023-03-13T08:23:36;1.20;;;1.10;;
66893;SDS011;53801;55.786;49.142;2023-03-13T08:26:16;0.80;;;0.80;;
66893;SDS011;53801;55.786;49.142;2023-03-13T08:28:45;1.60;;;1.50;;
66893;SDS011;53801;55.786;49.142;2023-03-13T08:31:18;1.23;;;1.13;;
66893;SDS011;53801;55.786;49.142;2023-03-13T08:33:44;1.50;;;1.40;;
66893;SDS011;53801;55.786;49.142;2023-03-13T08:36:20;1.73;;;1.63;;
66893;SDS011;53801;55.786;49.142;2023-03-13T08:38:47;2.17;;;1.97;;
66893;SDS011;53801;55.786;49.142;2023-03-13T08:41:15;1.65;;;1.55;;
66893;SDS011;53801;55.786;49.142;2023-03-13T08:43:41;2.40;;;2.20;;
66893;SDS011;53801;55.786;49.142;2023-03-13T08:46:09;1.80;;;1.70;;
66893;SDS011;53801;55.786;49.142;2023-03-13T08:48:40;2.00;;;1.90;;
66893;SDS011;53801;55.786;49.142;2023-03-13T08:51:07;1.77;;;1.67;;
66893;SDS011;53801;55.786;49.142;2023-03-13T08:53:33;3.20;;;2.97;;
66893;SDS011;53801;55.786;49.142;2023-03-13T08:56:40;2.10;;;2.00;;
66893;SDS011;53801;55.786;49.142;2023-03-13T08:59:07;2.10;;;2.00;;
66893;SDS011;53801;55.786;49.142;2023-03-13T09:01:34;1.90;;;1.80;;
66893;SDS011;53801;55.786;49.142;2023-03-13T09:04:00;1.40;;;1.30;;
66893;SDS011;53801;55.786;49.142;2023-03-13T09:06:36;1.02;;;0.93;;
66893;SDS011;53801;55.786;49.142;2023-03-13T09:09:02;1.13;;;1.02;;
66893;SDS011;53801;55.786;49.142;2023-03-13T09:11:28;2.17;;;2.07;;
66893;SDS011;53801;55.786;49.142;2023-03-13T09:17:18;1.98;;;1.85;;
66893;SDS011;53801;55.786;49.142;2023-03-13T09:19:46;1.75;;;1.65;;
66893;SDS011;53801;55.786;49.142;2023-03-13T09:22:14;0.85;;;0.85;;
66893;SDS011;53801;55.786;49.142;2023-03-13T09:24:40;0.60;;;0.50;;
66893;SDS011;53801;55.786;49.142;2023-03-13T09:27:06;0.50;;;0.30;;
66893;SDS011;53801;55.786;49.142;2023-03-13T09:29:36;0.70;;;0.60;;
66893;SDS011;53801;55.786;49.142;2023-03-13T09:32:04;0.55;;;0.45;;
66893;SDS011;53801;55.786;49.142;2023-03-13T09:34:32;0.60;;;0.50;;
66893;SDS011;53801;55.786;49.142;2023-03-13T09:37:01;1.60;;;0.85;;
66893;SDS011;53801;55.786;49.142;2023-03-13T09:39:27;0.50;;;0.32;;
66893;SDS011;53801;55.786;49.142;2023-03-13T09:44:58;0.52;;;0.32;;
66893;SDS011;53801;55.786;49.142;2023-03-13T09:47:39;0.67;;;0.60;;
66893;SDS011;53801;55.786;49.142;2023-03-13T09:52:54;1.55;;;1.45;;
66893;SDS011;53801;55.786;49.142;2023-03-13T09:55:22;1.20;;;1.10;;
66893;SDS011;53801;55.786;49.142;2023-03-13T09:58:12;1.27;;;1.17;;
66893;SDS011;53801;55.786;49.142;2023-03-13T10:00:41;1.70;;;1.60;;
66893;SDS011;53801;55.786;49.142;2023-03-13T10:05:33;0.60;;;0.60;;
66893;SDS011;53801;55.786;49.142;2023-03-13T10:08:17;3.60;;;0.90;;
66893;SDS011;53801;55.786;49.142;2023-03-13T10:15:58;1.48;;;1.38;;
66893;SDS011;53801;55.786;49.142;2023-03-13T10:18:25;0.60;;;0.60;;
66893;SDS011;53801;55.786;49.142;2023-03-13T10:20:57;2.33;;;2.23;;
66893;SDS011;53801;55.786;49.142;2023-03-13T10:25:59;1.40;;;1.30;;
66893;SDS011;53801;55.786;49.142;2023-03-13T10:28:24;1.50;;;1.40;;
66893;SDS011;53801;55.786;49.142;2023-03-13T10:30:56;0.70;;;0.63;;
66893;SDS011;53801;55.786;49.142;2023-03-13T10:33:25;2.10;;;2.00;;
66893;SDS011;53801;55.786;49.142;2023-03-13T10:38:25;0.60;;;0.50;;
66893;SDS011;53801;55.786;49.142;2023-03-13T10:41:01;1.70;;;1.60;;
66893;SDS011;53801;55.786;49.142;2023-03-13T10:43:38;2.10;;;2.00;;
66893;SDS011;53801;55.786;49.142;2023-03-13T10:46:23;1.30;;;1.20;;
66893;SDS011;53801;55.786;49.142;2023-03-13T10:48:48;1.90;;;1.80;;
66893;SDS011;53801;55.786;49.142;2023-03-13T10:51:20;1.60;;;1.50;;
66893;SDS011;53801;55.786;49.142;2023-03-13T10:53:46;1.33;;;1.23;;
66893;SDS011;53801;55.786;49.142;2023-03-13T10:56:13;1.90;;;1.80;;
66893;SDS011;53801;55.786;49.142;2023-03-13T10:58:49;1.70;;;1.60;;
66893;SDS011;53801;55.786;49.142;2023-03-13T11:01:17;1.70;;;1.60;;
66893;SDS011;53801;55.786;49.142;2023-03-13T11:03:46;1.50;;;1.40;;
66893;SDS011;53801;55.786;49.142;2023-03-13T11:06:29;1.50;;;1.40;;
66893;SDS011;53801;55.786;49.142;2023-03-13T11:09:11;0.80;;;0.80;;
66893;SDS011;53801;55.786;49.142;2023-03-13T11:14:12;0.73;;;0.57;;
66893;SDS011;53801;55.786;49.142;2023-03-13T11:16:41;0.50;;;0.40;;
66893;SDS011;53801;55.786;49.142;2023-03-13T11:19:32;0.52;;;0.40;;
66893;SDS011;53801;55.786;49.142;2023-03-13T11:22:01;1.08;;;0.98;;
66893;SDS011;53801;55.786;49.142;2023-03-13T11:37:44;0.30;;;0.20;;
66893;SDS011;53801;55.786;49.142;2023-03-13T11:54:08;0.53;;;0.40;;
66893;SDS011;53801;55.786;49.142;2023-03-13T12:01:15;0.30;;;0.20;;
66893;SDS011;53801;55.786;49.142;2023-03-13T12:08:54;0.40;;;0.30;;
66893;SDS011;53801;55.786;49.142;2023-03-13T12:11:26;0.30;;;0.20;;
66893;SDS011;53801;55.786;49.142;2023-03-13T12:13:56;0.30;;;0.20;;
66893;SDS011;53801;55.786;49.142;2023-03-13T12:16:30;0.43;;;0.30;;
66893;SDS011;53801;55.786;49.142;2023-03-13T12:19:04;0.30;;;0.20;;
66893;SDS011;53801;55.786;49.142;2023-03-13T12:29:54;0.20;;;0.10;;
66893;SDS011;53801;55.786;49.142;2023-03-13T12:32:28;0.30;;;0.30;;
66893;SDS011;53801;55.786;49.142;2023-03-13T12:35:08;0.30;;;0.20;;
66893;SDS011;53801;55.786;49.142;2023-03-13T12:38:03;0.20;;;0.10;;
66893;SDS011;53801;55.786;49.142;2023-03-13T12:43:33;0.20;;;0.20;;
66893;SDS011;53801;55.786;49.142;2023-03-13T13:01:41;0.20;;;0.10;;
66893;SDS011;53801;55.786;49.142;2023-03-13T13:04:11;0.30;;;0.20;;
66893;SDS011;53801;55.786;49.142;2023-03-13T13:09:32;0.20;;;0.10;;
66893;SDS011;53801;55.786;49.142;2023-03-13T13:12:24;0.20;;;0.15;;
66893;SDS011;53801;55.786;49.142;2023-03-13T13:23:40;0.20;;;0.10;;
66893;SDS011;53801;55.786;49.142;2023-03-13T13:51:35;0.20;;;0.10;;
66893;SDS011;53801;55.786;49.142;2023-03-13T13:54:02;0.20;;;0.10;;
66893;SDS011;53801;55.786;49.142;2023-03-13T13:56:30;1.27;;;0.97;;
66893;SDS011;53801;55.786;49.142;2023-03-13T14:04:32;0.20;;;0.10;;
66893;SDS011;53801;55.786;49.142;2023-03-13T14:07:09;0.20;;;0.10;;
66893;SDS011;53801;55.786;49.142;2023-03-13T14:12:24;0.20;;;0.10;;
66893;SDS011;53801;55.786;49.142;2023-03-13T14:15:05;0.20;;;0.10;;
66893;SDS011;53801;55.786;49.142;2023-03-13T14:17:36;0.20;;;0.10;;
66893;SDS011;53801;55.786;49.142;2023-03-13T14:20:02;0.32;;;0.30;;
66893;SDS011;53801;55.786;49.142;2023-03-13T14:22:42;0.20;;;0.10;;
66893;SDS011;53801;55.786;49.142;2023-03-13T14:25:08;0.20;;;0.10;;
66893;SDS011;53801;55.786;49.142;2023-03-13T14:27:34;0.20;;;0.10;;
66893;SDS011;53801;55.786;49.142;2023-03-13T14:30:13;0.40;;;0.40;;
66893;SDS011;53801;55.786;49.142;2023-03-13T14:32:42;0.20;;;0.10;;
66893;SDS011;53801;55.786;49.142;2023-03-13T14:35:09;0.20;;;0.10;;
66893;SDS011;53801;55.786;49.142;2023-03-13T14:37:41;0.15;;;0.10;;
66893;SDS011;53801;55.786;49.142;2023-03-13T14:40:23;0.20;;;0.10;;
66893;SDS011;53801;55.786;49.142;2023-03-13T14:42:50;0.20;;;0.20;;
66893;SDS011;53801;55.786;49.142;2023-03-13T14:45:24;0.20;;;0.10;;
66893;SDS011;53801;55.786;49.142;2023-03-13T14:47:50;0.20;;;0.10;;
66893;SDS011;53801;55.786;49.142;2023-03-13T14:50:15;0.20;;;0.10;;
66893;SDS011;53801;55.786;49.142;2023-03-13T14:52:45;0.20;;;0.10;;
66893;SDS011;53801;55.786;49.142;2023-03-13T14:57:57;0.20;;;0.10;;
66893;SDS011;53801;55.786;49.142;2023-03-13T15:05:44;0.20;;;0.10;;
66893;SDS011;53801;55.786;49.142;2023-03-13T15:08:13;0.20;;;0.10;;
66893;SDS011;53801;55.786;49.142;2023-03-13T15:10:39;0.20;;;0.10;;
66893;SDS011;53801;55.786;49.142;2023-03-13T15:15:40;0.20;;;0.10;;
66893;SDS011;53801;55.786;49.142;2023-03-13T15:18:12;0.20;;;0.20;;
66893;SDS011;53801;55.786;49.142;2023-03-13T15:20:40;0.20;;;0.10;;
66893;SDS011;53801;55.786;49.142;2023-03-13T15:23:07;0.20;;;0.10;;
66893;SDS011;53801;55.786;49.142;2023-03-13T15:25:33;0.10;;;0.10;;
66893;SDS011;53801;55.786;49.142;2023-03-13T15:27:59;0.20;;;0.10;;
66893;SDS011;53801;55.786;49.142;2023-03-13T15:30:24;0.20;;;0.10;;
66893;SDS011;53801;55.786;49.142;2023-03-13T15:32:50;0.20;;;0.10;;
66893;SDS011;53801;55.786;49.142;2023-03-13T15:37:48;0.45;;;0.45;;
66893;SDS011;53801;55.786;49.142;2023-03-13T15:40:16;0.20;;;0.10;;
66893;SDS011;53801;55.786;49.142;2023-03-13T15:42:42;0.20;;;0.10;;
66893;SDS011;53801;55.786;49.142;2023-03-13T15:45:07;20.17;;;4.47;;
66893;SDS011;53801;55.786;49.142;2023-03-13T15:47:33;0.20;;;0.20;;
66893;SDS011;53801;55.786;49.142;2023-03-13T15:49:59;0.20;;;0.10;;
66893;SDS011;53801;55.786;49.142;2023-03-13T15:52:24;0.20;;;0.10;;
66893;SDS011;53801;55.786;49.142;2023-03-13T15:54:50;4.00;;;3.60;;
66893;SDS011;53801;55.786;49.142;2023-03-13T15:57:23;0.20;;;0.10;;
66893;SDS011;53801;55.786;49.142;2023-03-13T15:59:49;0.33;;;0.27;;
66893;SDS011;53801;55.786;49.142;2023-03-13T16:02:18;0.20;;;0.10;;
66893;SDS011;53801;55.786;49.142;2023-03-13T16:04:47;0.20;;;0.10;;
66893;SDS011;53801;55.786;49.142;2023-03-13T16:07:14;0.20;;;0.10;;
66893;SDS011;53801;55.786;49.142;2023-03-13T16:09:40;0.20;;;0.10;;
66893;SDS011;53801;55.786;49.142;2023-03-13T16:12:32;0.20;;;0.10;;
66893;SDS011;53801;55.786;49.142;2023-03-13T16:14:59;0.20;;;0.10;;
66893;SDS011;53801;55.786;49.142;2023-03-13T16:17:25;0.40;;;0.40;;
66893;SDS011;53801;55.786;49.142;2023-03-13T16:19:52;0.20;;;0.10;;
66893;SDS011;53801;55.786;49.142;2023-03-13T16:22:21;0.17;;;0.10;;
66893;SDS011;53801;55.786;49.142;2023-03-13T16:24:47;0.20;;;0.10;;
66893;SDS011;53801;55.786;49.142;2023-03-13T16:27:16;0.10;;;0.10;;
66893;SDS011;53801;55.786;49.142;2023-03-13T16:29:42;0.20;;;0.10;;
66893;SDS011;53801;55.786;49.142;2023-03-13T16:32:09;0.20;;;0.10;;
66893;SDS011;53801;55.786;49.142;2023-03-13T16:34:48;1.00;;;0.98;;
66893;SDS011;53801;55.786;49.142;2023-03-13T16:37:14;0.33;;;0.23;;
66893;SDS011;53801;55.786;49.142;2023-03-13T16:39:41;0.20;;;0.10;;
66893;SDS011;53801;55.786;49.142;2023-03-13T16:42:07;0.20;;;0.10;;
66893;SDS011;53801;55.786;49.142;2023-03-13T16:44:32;0.30;;;0.20;;
66893;SDS011;53801;55.786;49.142;2023-03-13T16:46:58;0.20;;;0.10;;
66893;SDS011;53801;55.786;49.142;2023-03-13T16:49:23;0.20;;;0.10;;
66893;SDS011;53801;55.786;49.142;2023-03-13T16:51:48;0.20;;;0.10;;
66893;SDS011;53801;55.786;49.142;2023-03-13T16:54:14;0.23;;;0.20;;
66893;SDS011;53801;55.786;49.142;2023-03-13T16:59:11;0.20;;;0.10;;
66893;SDS011;53801;55.786;49.142;2023-03-13T17:01:39;0.20;;;0.10;;
66893;SDS011;53801;55.786;49.142;2023-03-13T17:04:05;0.20;;;0.20;;
66893;SDS011;53801;55.786;49.142;2023-03-13T17:06:37;0.20;;;0.10;;
66893;SDS011;53801;55.786;49.142;2023-03-13T17:09:09;0.10;;;0.10;;
66893;SDS011;53801;55.786;49.142;2023-03-13T17:11:36;0.20;;;0.10;;
66893;SDS011;53801;55.786;49.142;2023-03-13T17:14:01;0.57;;;0.57;;
66893;SDS011;53801;55.786;49.142;2023-03-13T17:16:37;0.20;;;0.10;;
66893;SDS011;53801;55.786;49.142;2023-03-13T17:19:09;0.20;;;0.10;;
66893;SDS011;53801;55.786;49.142;2023-03-13T17:30:19;6.95;;;2.30;;
66893;SDS011;53801;55.786;49.142;2023-03-13T17:32:46;22.95;;;2.80;;
66893;SDS011;53801;55.786;49.142;2023-03-13T17:35:19;6.28;;;2.30;;
66893;SDS011;53801;55.786;49.142;2023-03-13T17:40:42;8.20;;;2.40;;
66893;SDS011;53801;55.786;49.142;2023-03-13T17:43:11;8.57;;;2.55;;
66893;SDS011;53801;55.786;49.142;2023-03-13T17:45:40;11.15;;;2.78;;
66893;SDS011;53801;55.786;49.142;2023-03-13T17:48:10;10.25;;;2.80;;
66893;SDS011;53801;55.786;49.142;2023-03-13T17:50:37;14.85;;;3.25;;
66893;SDS011;53801;55.786;49.142;2023-03-13T17:55:39;12.90;;;4.03;;
66893;SDS011;53801;55.786;49.142;2023-03-13T17:58:05;9.95;;;2.92;;
66893;SDS011;53801;55.786;49.142;2023-03-13T18:00:30;8.40;;;2.50;;
66893;SDS011;53801;55.786;49.142;2023-03-13T18:02:57;10.85;;;3.63;;
66893;SDS011;53801;55.786;49.142;2023-03-13T18:05:24;14.00;;;3.33;;
66893;SDS011;53801;55.786;49.142;2023-03-13T18:07:50;10.85;;;3.58;;
66893;SDS011;53801;55.786;49.142;2023-03-13T18:10:25;13.15;;;3.42;;
66893;SDS011;53801;55.786;49.142;2023-03-13T18:12:52;9.20;;;3.57;;
66893;SDS011;53801;55.786;49.142;2023-03-13T18:18:21;12.63;;;3.78;;
66893;SDS011;53801;55.786;49.142;2023-03-13T18:27:18;10.10;;;2.90;;
66893;SDS011;53801;55.786;49.142;2023-03-13T18:48:28;7.30;;;2.38;;
66893;SDS011;53801;55.786;49.142;2023-03-13T18:50:54;9.23;;;2.45;;
66893;SDS011;53801;55.786;49.142;2023-03-13T18:56:36;6.65;;;2.03;;
66893;SDS011;53801;55.786;49.142;2023-03-13T19:04:11;7.07;;;2.20;;
66893;SDS011;53801;55.786;49.142;2023-03-13T19:06:37;8.03;;;2.30;;
66893;SDS011;53801;55.786;49.142;2023-03-13T19:09:13;10.82;;;2.35;;
66893;SDS011;53801;55.786;49.142;2023-03-13T19:12:04;9.20;;;2.33;;
66893;SDS011;53801;55.786;49.142;2023-03-13T19:20:18;5.93;;;1.17;;
66893;SDS011;53801;55.786;49.142;2023-03-13T19:22:45;5.80;;;1.87;;
66893;SDS011;53801;55.786;49.142;2023-03-13T19:25:12;7.75;;;1.75;;
66893;SDS011;53801;55.786;49.142;2023-03-13T19:27:41;8.57;;;2.33;;
66893;SDS011;53801;55.786;49.142;2023-03-13T19:30:17;5.53;;;1.50;;
66893;SDS011;53801;55.786;49.142;2023-03-13T19:32:43;19.42;;;2.10;;
66893;SDS011;53801;55.786;49.142;2023-03-13T19:35:09;4.23;;;1.27;;
66893;SDS011;53801;55.786;49.142;2023-03-13T19:37:37;4.93;;;1.30;;
66893;SDS011;53801;55.786;49.142;2023-03-13T19:43:10;4.50;;;1.00;;
66893;SDS011;53801;55.786;49.142;2023-03-13T19:45:36;4.03;;;1.00;;
66893;SDS011;53801;55.786;49.142;2023-03-13T19:48:05;7.32;;;1.52;;
66893;SDS011;53801;55.786;49.142;2023-03-13T19:50:34;5.05;;;1.40;;
66893;SDS011;53801;55.786;49.142;2023-03-13T19:53:00;3.60;;;1.60;;
66893;SDS011;53801;55.786;49.142;2023-03-13T19:55:29;3.80;;;1.10;;
66893;SDS011;53801;55.786;49.142;2023-03-13T19:57:55;3.53;;;1.15;;
66893;SDS011;53801;55.786;49.142;2023-03-13T20:00:22;5.05;;;1.17;;
66893;SDS011;53801;55.786;49.142;2023-03-13T20:02:48;3.63;;;1.20;;
66893;SDS011;53801;55.786;49.142;2023-03-13T20:05:16;9.13;;;1.25;;
66893;SDS011;53801;55.786;49.142;2023-03-13T20:11:34;4.70;;;1.30;;
66893;SDS011;53801;55.786;49.142;2023-03-13T20:14:04;4.00;;;1.40;;
66893;SDS011;53801;55.786;49.142;2023-03-13T20:16:30;5.82;;;1.30;;
66893;SDS011;53801;55.786;49.142;2023-03-13T20:18:56;9.25;;;2.30;;
66893;SDS011;53801;55.786;49.142;2023-03-13T20:21:24;7.23;;;1.20;;
66893;SDS011;53801;55.786;49.142;2023-03-13T20:23:57;5.72;;;1.10;;
66893;SDS011;53801;55.786;49.142;2023-03-13T20:26:33;5.55;;;1.60;;
66893;SDS011;53801;55.786;49.142;2023-03-13T20:29:09;5.25;;;1.38;;
66893;SDS011;53801;55.786;49.142;2023-03-13T20:31:38;11.60;;;1.30;;
66893;SDS011;53801;55.786;49.142;2023-03-13T20:34:09;5.00;;;0.90;;
66893;SDS011;53801;55.786;49.142;2023-03-13T20:36:38;3.42;;;1.17;;
66893;SDS011;53801;55.786;49.142;2023-03-13T20:42:12;9.27;;;1.67;;
66893;SDS011;53801;55.786;49.142;2023-03-13T20:44:50;4.50;;;1.23;;
66893;SDS011;53801;55.786;49.142;2023-03-13T20:47:21;6.97;;;1.60;;
66893;SDS011;53801;55.786;49.142;2023-03-13T20:56:15;4.47;;;1.30;;
66893;SDS011;53801;55.786;49.142;2023-03-13T20:58:40;3.63;;;1.13;;
66893;SDS011;53801;55.786;49.142;2023-03-13T21:07:29;6.45;;;1.77;;
66893;SDS011;53801;55.786;49.142;2023-03-13T21:10:00;4.28;;;1.67;;
66893;SDS011;53801;55.786;49.142;2023-03-13T21:22:12;4.05;;;1.13;;
66893;SDS011;53801;55.786;49.142;2023-03-13T21:34:58;3.42;;;0.90;;
66893;SDS011;53801;55.786;49.142;2023-03-13T21:37:23;3.43;;;0.93;;
66893;SDS011;53801;55.786;49.142;2023-03-13T21:39:50;4.20;;;0.90;;
66893;SDS011;53801;55.786;49.142;2023-03-13T21:42:15;3.65;;;0.77;;
66893;SDS011;53801;55.786;49.142;2023-03-13T21:44:42;3.10;;;0.88;;
66893;SDS011;53801;55.786;49.142;2023-03-13T21:47:09;2.45;;;0.60;;
66893;SDS011;53801;55.786;49.142;2023-03-13T21:49:34;2.53;;;0.80;;
66893;SDS011;53801;55.786;49.142;2023-03-13T22:00:54;2.40;;;0.87;;
66893;SDS011;53801;55.786;49.142;2023-03-13T22:08:58;3.42;;;0.82;;
66893;SDS011;53801;55.786;49.142;2023-03-13T22:11:31;5.28;;;0.82;;
66893;SDS011;53801;55.786;49.142;2023-03-13T22:14:31;5.50;;;0.90;;
66893;SDS011;53801;55.786;49.142;2023-03-13T22:44:23;2.72;;;0.80;;
66893;SDS011;53801;55.786;49.142;2023-03-13T22:46:49;2.30;;;0.50;;
66893;SDS011;53801;55.786;49.142;2023-03-13T22:55:20;1.33;;;0.30;;
66893;SDS011;53801;55.786;49.142;2023-03-13T22:57:46;1.63;;;0.50;;
66893;SDS011;53801;55.786;49.142;2023-03-13T23:00:15;1.77;;;0.30;;
66893;SDS011;53801;55.786;49.142;2023-03-13T23:02:41;1.35;;;0.40;;
66893;SDS011;53801;55.786;49.142;2023-03-13T23:05:06;2.73;;;0.50;;
66893;SDS011;53801;55.786;49.142;2023-03-13T23:10:14;1.75;;;0.40;;
66893;SDS011;53801;55.786;49.142;2023-03-13T23:12:40;2.13;;;0.68;;
66893;SDS011;53801;55.786;49.142;2023-03-13T23:15:25;1.73;;;0.50;;
66893;SDS011;53801;55.786;49.142;2023-03-13T23:17:51;1.52;;;0.50;;
66893;SDS011;53801;55.786;49.142;2023-03-13T23:20:16;1.80;;;0.60;;
66893;SDS011;53801;55.786;49.142;2023-03-13T23:22:42;2.43;;;0.40;;
66893;SDS011;53801;55.786;49.142;2023-03-13T23:25:11;3.15;;;0.55;;
66893;SDS011;53801;55.786;49.142;2023-03-13T23:27:38;2.63;;;0.60;;
66893;SDS011;53801;55.786;49.142;2023-03-13T23:30:05;1.83;;;0.50;;
66893;SDS011;53801;55.786;49.142;2023-03-13T23:32:35;2.72;;;0.55;;
66893;SDS011;53801;55.786;49.142;2023-03-13T23:35:00;1.80;;;0.60;;
66893;SDS011;53801;55.786;49.142;2023-03-13T23:39:58;3.03;;;0.50;;
66893;SDS011;53801;55.786;49.142;2023-03-13T23:45:14;1.98;;;0.70;;
66893;SDS011;53801;55.786;49.142;2023-03-13T23:47:40;2.85;;;0.60;;
66893;SDS011;53801;55.786;49.142;2023-03-13T23:56:16;1.60;;;0.43;;
